sensor_id;sensor_type;location;lat;lon;timestamp;pressure;altitude;pressure_sealevel;temperature;humidity
62928;BME280;51070;52.236;-0.892;2023-08-06T00:01:48;100453.16;;;12.14;95.26
62928;BME280;51070;52.236;-0.892;2023-08-06T00:04:14;100450.88;;;12.13;95.37
62928;BME280;51070;52.236;-0.892;2023-08-06T00:06:39;100450.48;;;12.11;95.48
62928;BME280;51070;52.236;-0.892;2023-08-06T00:09:05;100447.15;;;12.09;95.22
62928;BME280;51070;52.236;-0.892;2023-08-06T00:11:30;100445.52;;;12.06;95.09
62928;BME280;51070;52.236;-0.892;2023-08-06T00:13:56;100445.65;;;12.04;95.05
62928;BME280;51070;52.236;-0.892;2023-08-06T00:16:21;100452.38;;;12.02;95.03
62928;BME280;51070;52.236;-0.892;2023-08-06T00:18:47;100452.52;;;12.01;94.90
62928;BME280;51070;52.236;-0.892;2023-08-06T00:21:12;100455.41;;;11.99;94.93
62928;BME280;51070;52.236;-0.892;2023-08-06T00:23:38;100457.13;;;11.98;94.93
62928;BME280;51070;52.236;-0.892;2023-08-06T00:26:04;100457.45;;;11.96;94.87
62928;BME280;51070;52.236;-0.892;2023-08-06T00:28:29;100456.36;;;11.95;94.93
62928;BME280;51070;52.236;-0.892;2023-08-06T00:30:55;100451.84;;;11.94;94.94
62928;BME280;51070;52.236;-0.892;2023-08-06T00:33:22;100454.23;;;11.92;94.57
62928;BME280;51070;52.236;-0.892;2023-08-06T00:35:47;100454.45;;;11.88;94.59
62928;BME280;51070;52.236;-0.892;2023-08-06T00:38:13;100456.99;;;11.85;94.91
62928;BME280;51070;52.236;-0.892;2023-08-06T00:40:38;100458.16;;;11.83;95.03
62928;BME280;51070;52.236;-0.892;2023-08-06T00:43:04;100453.48;;;11.82;94.98
62928;BME280;51070;52.236;-0.892;2023-08-06T00:45:30;100456.23;;;11.81;95.08
62928;BME280;51070;52.236;-0.892;2023-08-06T00:47:59;100458.15;;;11.82;95.54
62928;BME280;51070;52.236;-0.892;2023-08-06T00:50:25;100461.46;;;11.83;95.21
62928;BME280;51070;52.236;-0.892;2023-08-06T00:52:51;100463.70;;;11.83;94.97
62928;BME280;51070;52.236;-0.892;2023-08-06T00:55:17;100466.79;;;11.81;94.76
62928;BME280;51070;52.236;-0.892;2023-08-06T00:57:42;100471.02;;;11.77;94.70
62928;BME280;51070;52.236;-0.892;2023-08-06T01:00:08;100476.78;;;11.73;94.82
62928;BME280;51070;52.236;-0.892;2023-08-06T01:02:34;100477.25;;;11.70;95.01
62928;BME280;51070;52.236;-0.892;2023-08-06T01:05:00;100481.52;;;11.69;94.80
62928;BME280;51070;52.236;-0.892;2023-08-06T01:07:53;100487.73;;;11.68;95.03
62928;BME280;51070;52.236;-0.892;2023-08-06T01:15:41;100487.52;;;11.66;94.61
62928;BME280;51070;52.236;-0.892;2023-08-06T01:18:09;100484.64;;;11.62;94.43
62928;BME280;51070;52.236;-0.892;2023-08-06T01:20:35;100488.05;;;11.59;94.42
62928;BME280;51070;52.236;-0.892;2023-08-06T01:23:00;100490.42;;;11.58;94.31
62928;BME280;51070;52.236;-0.892;2023-08-06T01:25:30;100489.16;;;11.56;94.17
62928;BME280;51070;52.236;-0.892;2023-08-06T01:28:07;100490.36;;;11.55;94.22
62928;BME280;51070;52.236;-0.892;2023-08-06T01:30:37;100491.04;;;11.54;94.50
62928;BME280;51070;52.236;-0.892;2023-08-06T01:33:09;100495.73;;;11.55;94.43
62928;BME280;51070;52.236;-0.892;2023-08-06T01:35:37;100499.89;;;11.56;94.30
62928;BME280;51070;52.236;-0.892;2023-08-06T01:38:03;100504.91;;;11.56;94.39
62928;BME280;51070;52.236;-0.892;2023-08-06T01:40:29;100508.70;;;11.55;94.37
62928;BME280;51070;52.236;-0.892;2023-08-06T01:42:54;100514.37;;;11.53;94.15
62928;BME280;51070;52.236;-0.892;2023-08-06T01:45:20;100520.73;;;11.52;94.31
62928;BME280;51070;52.236;-0.892;2023-08-06T01:47:45;100520.86;;;11.49;94.34
62928;BME280;51070;52.236;-0.892;2023-08-06T01:50:11;100527.87;;;11.47;94.30
62928;BME280;51070;52.236;-0.892;2023-08-06T01:52:36;100532.84;;;11.45;94.42
62928;BME280;51070;52.236;-0.892;2023-08-06T01:55:01;100537.85;;;11.44;94.43
62928;BME280;51070;52.236;-0.892;2023-08-06T01:57:27;100538.98;;;11.42;94.70
62928;BME280;51070;52.236;-0.892;2023-08-06T01:59:52;100545.84;;;11.40;94.86
62928;BME280;51070;52.236;-0.892;2023-08-06T02:02:17;100547.92;;;11.39;94.95
62928;BME280;51070;52.236;-0.892;2023-08-06T02:04:43;100548.79;;;11.39;95.00
62928;BME280;51070;52.236;-0.892;2023-08-06T02:07:08;100553.30;;;11.40;95.09
62928;BME280;51070;52.236;-0.892;2023-08-06T02:09:33;100557.61;;;11.39;94.98
62928;BME280;51070;52.236;-0.892;2023-08-06T02:12:00;100554.97;;;11.37;95.06
62928;BME280;51070;52.236;-0.892;2023-08-06T02:14:26;100555.40;;;11.33;94.97
62928;BME280;51070;52.236;-0.892;2023-08-06T02:16:51;100559.85;;;11.32;94.93
62928;BME280;51070;52.236;-0.892;2023-08-06T02:19:17;100558.98;;;11.31;94.98
62928;BME280;51070;52.236;-0.892;2023-08-06T02:21:42;100561.09;;;11.32;95.11
62928;BME280;51070;52.236;-0.892;2023-08-06T02:24:07;100552.98;;;11.33;95.01
62928;BME280;51070;52.236;-0.892;2023-08-06T02:26:33;100554.73;;;11.35;94.93
62928;BME280;51070;52.236;-0.892;2023-08-06T02:28:58;100557.16;;;11.35;94.59
62928;BME280;51070;52.236;-0.892;2023-08-06T02:31:23;100556.96;;;11.34;94.74
62928;BME280;51070;52.236;-0.892;2023-08-06T02:33:49;100561.12;;;11.34;94.66
62928;BME280;51070;52.236;-0.892;2023-08-06T02:36:14;100558.79;;;11.31;94.37
62928;BME280;51070;52.236;-0.892;2023-08-06T02:38:39;100557.49;;;11.28;94.23
62928;BME280;51070;52.236;-0.892;2023-08-06T02:41:05;100558.80;;;11.25;94.10
62928;BME280;51070;52.236;-0.892;2023-08-06T02:43:31;100560.13;;;11.23;94.25
62928;BME280;51070;52.236;-0.892;2023-08-06T02:45:57;100561.34;;;11.23;94.00
62928;BME280;51070;52.236;-0.892;2023-08-06T02:48:23;100556.65;;;11.23;94.05
62928;BME280;51070;52.236;-0.892;2023-08-06T02:50:48;100554.95;;;11.24;93.98
62928;BME280;51070;52.236;-0.892;2023-08-06T02:53:14;100556.53;;;11.25;94.28
62928;BME280;51070;52.236;-0.892;2023-08-06T02:55:47;100556.58;;;11.26;93.99
62928;BME280;51070;52.236;-0.892;2023-08-06T02:58:16;100554.64;;;11.25;93.66
62928;BME280;51070;52.236;-0.892;2023-08-06T03:00:43;100557.70;;;11.22;93.45
62928;BME280;51070;52.236;-0.892;2023-08-06T03:03:09;100553.44;;;11.19;93.41
62928;BME280;51070;52.236;-0.892;2023-08-06T03:05:35;100559.10;;;11.17;93.41
62928;BME280;51070;52.236;-0.892;2023-08-06T03:08:00;100560.23;;;11.14;93.54
62928;BME280;51070;52.236;-0.892;2023-08-06T03:10:26;100563.13;;;11.12;93.46
62928;BME280;51070;52.236;-0.892;2023-08-06T03:12:51;100561.21;;;11.11;93.77
62928;BME280;51070;52.236;-0.892;2023-08-06T03:15:16;100565.35;;;11.12;93.90
62928;BME280;51070;52.236;-0.892;2023-08-06T03:17:42;100566.08;;;11.13;94.20
62928;BME280;51070;52.236;-0.892;2023-08-06T03:20:10;100567.63;;;11.13;94.15
62928;BME280;51070;52.236;-0.892;2023-08-06T03:22:36;100565.73;;;11.13;94.19
62928;BME280;51070;52.236;-0.892;2023-08-06T03:25:02;100572.08;;;11.11;93.79
62928;BME280;51070;52.236;-0.892;2023-08-06T03:27:27;100574.04;;;11.07;94.22
62928;BME280;51070;52.236;-0.892;2023-08-06T03:29:53;100574.30;;;11.04;94.05
62928;BME280;51070;52.236;-0.892;2023-08-06T03:32:18;100573.02;;;11.01;94.25
62928;BME280;51070;52.236;-0.892;2023-08-06T03:34:43;100577.27;;;10.99;94.39
62928;BME280;51070;52.236;-0.892;2023-08-06T03:37:09;100578.79;;;10.98;94.65
62928;BME280;51070;52.236;-0.892;2023-08-06T03:39:34;100582.90;;;10.97;94.92
62928;BME280;51070;52.236;-0.892;2023-08-06T03:42:00;100585.84;;;10.96;95.07
62928;BME280;51070;52.236;-0.892;2023-08-06T03:44:25;100583.16;;;10.93;94.77
62928;BME280;51070;52.236;-0.892;2023-08-06T03:46:52;100580.64;;;10.89;95.16
62928;BME280;51070;52.236;-0.892;2023-08-06T03:49:17;100583.87;;;10.87;95.17
62928;BME280;51070;52.236;-0.892;2023-08-06T03:51:43;100582.71;;;10.83;95.13
62928;BME280;51070;52.236;-0.892;2023-08-06T03:54:08;100581.25;;;10.81;95.23
62928;BME280;51070;52.236;-0.892;2023-08-06T03:56:34;100581.32;;;10.77;95.26
62928;BME280;51070;52.236;-0.892;2023-08-06T03:58:59;100581.60;;;10.75;95.84
62928;BME280;51070;52.236;-0.892;2023-08-06T04:01:24;100578.80;;;10.74;95.84
62928;BME280;51070;52.236;-0.892;2023-08-06T04:03:50;100573.79;;;10.74;96.10
62928;BME280;51070;52.236;-0.892;2023-08-06T04:06:15;100580.55;;;10.75;96.22
62928;BME280;51070;52.236;-0.892;2023-08-06T04:08:40;100578.29;;;10.74;96.20
62928;BME280;51070;52.236;-0.892;2023-08-06T04:11:06;100582.09;;;10.74;96.41
62928;BME280;51070;52.236;-0.892;2023-08-06T04:13:31;100585.52;;;10.73;96.25
62928;BME280;51070;52.236;-0.892;2023-08-06T04:16:01;100586.64;;;10.71;95.90
62928;BME280;51070;52.236;-0.892;2023-08-06T04:18:27;100592.96;;;10.67;95.95
62928;BME280;51070;52.236;-0.892;2023-08-06T04:20:52;100594.27;;;10.66;96.38
62928;BME280;51070;52.236;-0.892;2023-08-06T04:23:20;100597.02;;;10.65;96.68
62928;BME280;51070;52.236;-0.892;2023-08-06T04:25:46;100603.81;;;10.67;96.86
62928;BME280;51070;52.236;-0.892;2023-08-06T04:28:11;100605.92;;;10.68;96.71
62928;BME280;51070;52.236;-0.892;2023-08-06T04:30:37;100608.35;;;10.68;96.44
62928;BME280;51070;52.236;-0.892;2023-08-06T04:33:02;100607.46;;;10.67;96.73
62928;BME280;51070;52.236;-0.892;2023-08-06T04:35:28;100609.17;;;10.67;96.60
62928;BME280;51070;52.236;-0.892;2023-08-06T04:37:53;100610.20;;;10.66;96.70
62928;BME280;51070;52.236;-0.892;2023-08-06T04:40:18;100611.55;;;10.65;96.38
62928;BME280;51070;52.236;-0.892;2023-08-06T04:42:44;100612.51;;;10.62;96.28
62928;BME280;51070;52.236;-0.892;2023-08-06T04:45:09;100616.58;;;10.60;96.39
62928;BME280;51070;52.236;-0.892;2023-08-06T04:47:35;100617.29;;;10.61;96.71
62928;BME280;51070;52.236;-0.892;2023-08-06T04:50:00;100620.95;;;10.62;96.85
62928;BME280;51070;52.236;-0.892;2023-08-06T04:52:26;100613.56;;;10.63;96.87
62928;BME280;51070;52.236;-0.892;2023-08-06T04:54:54;100615.70;;;10.65;97.18
62928;BME280;51070;52.236;-0.892;2023-08-06T04:57:19;100618.73;;;10.68;97.28
62928;BME280;51070;52.236;-0.892;2023-08-06T04:59:45;100621.22;;;10.71;96.79
62928;BME280;51070;52.236;-0.892;2023-08-06T05:02:11;100623.83;;;10.71;96.77
62928;BME280;51070;52.236;-0.892;2023-08-06T05:04:36;100624.53;;;10.71;96.78
62928;BME280;51070;52.236;-0.892;2023-08-06T05:07:01;100630.09;;;10.72;96.56
62928;BME280;51070;52.236;-0.892;2023-08-06T05:09:27;100631.82;;;10.72;96.32
62928;BME280;51070;52.236;-0.892;2023-08-06T05:11:52;100634.24;;;10.72;96.47
62928;BME280;51070;52.236;-0.892;2023-08-06T05:14:17;100638.77;;;10.73;96.81
62928;BME280;51070;52.236;-0.892;2023-08-06T05:16:43;100637.27;;;10.76;96.95
62928;BME280;51070;52.236;-0.892;2023-08-06T05:19:08;100644.46;;;10.79;97.11
62928;BME280;51070;52.236;-0.892;2023-08-06T05:21:33;100646.45;;;10.82;97.42
62928;BME280;51070;52.236;-0.892;2023-08-06T05:23:59;100650.38;;;10.86;97.20
62928;BME280;51070;52.236;-0.892;2023-08-06T05:26:24;100653.89;;;10.87;97.01
62928;BME280;51070;52.236;-0.892;2023-08-06T05:28:49;100651.63;;;10.87;97.01
62928;BME280;51070;52.236;-0.892;2023-08-06T05:31:15;100654.19;;;10.86;97.30
62928;BME280;51070;52.236;-0.892;2023-08-06T05:33:40;100649.90;;;10.87;97.66
62928;BME280;51070;52.236;-0.892;2023-08-06T05:36:05;100651.00;;;10.89;97.60
62928;BME280;51070;52.236;-0.892;2023-08-06T05:38:31;100654.20;;;10.92;97.90
62928;BME280;51070;52.236;-0.892;2023-08-06T05:40:56;100654.65;;;10.96;98.00
62928;BME280;51070;52.236;-0.892;2023-08-06T05:43:22;100660.33;;;11.00;98.28
62928;BME280;51070;52.236;-0.892;2023-08-06T05:45:51;100665.65;;;11.06;98.37
62928;BME280;51070;52.236;-0.892;2023-08-06T05:48:16;100667.08;;;11.13;98.35
62928;BME280;51070;52.236;-0.892;2023-08-06T05:50:41;100669.20;;;11.20;98.57
62928;BME280;51070;52.236;-0.892;2023-08-06T05:53:07;100673.03;;;11.27;98.25
62928;BME280;51070;52.236;-0.892;2023-08-06T05:55:33;100676.33;;;11.34;98.25
62928;BME280;51070;52.236;-0.892;2023-08-06T05:57:58;100675.79;;;11.39;97.93
62928;BME280;51070;52.236;-0.892;2023-08-06T06:00:24;100676.58;;;11.42;97.59
62928;BME280;51070;52.236;-0.892;2023-08-06T06:02:49;100677.48;;;11.45;97.67
62928;BME280;51070;52.236;-0.892;2023-08-06T06:05:14;100678.63;;;11.48;97.92
62928;BME280;51070;52.236;-0.892;2023-08-06T06:07:40;100680.50;;;11.53;98.07
62928;BME280;51070;52.236;-0.892;2023-08-06T06:10:06;100681.91;;;11.60;98.44
62928;BME280;51070;52.236;-0.892;2023-08-06T06:12:31;100684.73;;;11.68;98.26
62928;BME280;51070;52.236;-0.892;2023-08-06T06:14:57;100690.15;;;11.75;97.79
62928;BME280;51070;52.236;-0.892;2023-08-06T06:17:22;100688.73;;;11.81;97.57
62928;BME280;51070;52.236;-0.892;2023-08-06T06:19:48;100688.95;;;11.83;97.31
62928;BME280;51070;52.236;-0.892;2023-08-06T06:22:13;100689.55;;;11.86;97.54
62928;BME280;51070;52.236;-0.892;2023-08-06T06:24:39;100692.64;;;11.91;97.67
62928;BME280;51070;52.236;-0.892;2023-08-06T06:27:05;100696.10;;;11.97;97.74
62928;BME280;51070;52.236;-0.892;2023-08-06T06:29:30;100695.96;;;12.06;97.65
62928;BME280;51070;52.236;-0.892;2023-08-06T06:31:55;100701.02;;;12.13;97.45
62928;BME280;51070;52.236;-0.892;2023-08-06T06:34:21;100701.51;;;12.26;97.16
62928;BME280;51070;52.236;-0.892;2023-08-06T06:36:47;100701.08;;;12.37;97.01
62928;BME280;51070;52.236;-0.892;2023-08-06T06:39:13;100695.73;;;12.45;96.80
62928;BME280;51070;52.236;-0.892;2023-08-06T06:41:38;100697.87;;;12.54;96.42
62928;BME280;51070;52.236;-0.892;2023-08-06T06:44:05;100698.89;;;12.68;96.07
62928;BME280;51070;52.236;-0.892;2023-08-06T06:46:31;100703.90;;;13.05;95.46
62928;BME280;51070;52.236;-0.892;2023-08-06T06:48:56;100703.84;;;14.83;92.23
62928;BME280;51070;52.236;-0.892;2023-08-06T06:51:21;100698.63;;;16.73;86.25
62928;BME280;51070;52.236;-0.892;2023-08-06T06:53:47;100694.00;;;18.55;80.13
62928;BME280;51070;52.236;-0.892;2023-08-06T06:56:13;100696.29;;;20.51;74.22
62928;BME280;51070;52.236;-0.892;2023-08-06T06:58:38;100693.65;;;22.58;65.67
62928;BME280;51070;52.236;-0.892;2023-08-06T07:01:07;100700.45;;;24.18;59.34
62928;BME280;51070;52.236;-0.892;2023-08-06T07:03:33;100702.73;;;25.09;57.45
62928;BME280;51070;52.236;-0.892;2023-08-06T07:05:58;100704.98;;;26.45;53.09
62928;BME280;51070;52.236;-0.892;2023-08-06T07:08:25;100707.11;;;26.91;50.89
62928;BME280;51070;52.236;-0.892;2023-08-06T07:10:51;100711.46;;;25.91;49.59
62928;BME280;51070;52.236;-0.892;2023-08-06T07:13:24;100714.44;;;24.87;50.61
62928;BME280;51070;52.236;-0.892;2023-08-06T07:15:49;100717.73;;;24.04;52.10
62928;BME280;51070;52.236;-0.892;2023-08-06T07:18:14;100722.71;;;23.27;52.32
62928;BME280;51070;52.236;-0.892;2023-08-06T07:20:40;100721.07;;;22.52;53.31
62928;BME280;51070;52.236;-0.892;2023-08-06T07:23:05;100725.73;;;21.87;53.71
62928;BME280;51070;52.236;-0.892;2023-08-06T07:25:30;100724.71;;;21.30;55.04
62928;BME280;51070;52.236;-0.892;2023-08-06T07:27:56;100729.20;;;20.85;55.30
62928;BME280;51070;52.236;-0.892;2023-08-06T07:30:22;100734.42;;;20.53;56.00
62928;BME280;51070;52.236;-0.892;2023-08-06T07:32:47;100739.68;;;20.28;56.94
62928;BME280;51070;52.236;-0.892;2023-08-06T07:35:12;100742.61;;;20.07;57.60
62928;BME280;51070;52.236;-0.892;2023-08-06T07:37:39;100742.41;;;19.85;57.53
62928;BME280;51070;52.236;-0.892;2023-08-06T07:40:06;100741.79;;;19.67;58.15
62928;BME280;51070;52.236;-0.892;2023-08-06T07:42:32;100741.61;;;19.66;58.34
62928;BME280;51070;52.236;-0.892;2023-08-06T07:44:58;100742.66;;;19.68;58.40
62928;BME280;51070;52.236;-0.892;2023-08-06T07:47:24;100743.16;;;19.75;58.12
62928;BME280;51070;52.236;-0.892;2023-08-06T07:49:50;100746.66;;;19.74;57.79
62928;BME280;51070;52.236;-0.892;2023-08-06T07:52:15;100749.88;;;19.61;58.13
62928;BME280;51070;52.236;-0.892;2023-08-06T07:54:41;100751.67;;;19.47;58.56
62928;BME280;51070;52.236;-0.892;2023-08-06T07:57:06;100750.98;;;19.43;59.12
62928;BME280;51070;52.236;-0.892;2023-08-06T07:59:32;100752.03;;;19.36;59.31
62928;BME280;51070;52.236;-0.892;2023-08-06T08:01:57;100749.95;;;19.31;60.09
62928;BME280;51070;52.236;-0.892;2023-08-06T08:04:24;100752.55;;;19.47;60.03
62928;BME280;51070;52.236;-0.892;2023-08-06T08:06:50;100757.23;;;19.64;59.66
62928;BME280;51070;52.236;-0.892;2023-08-06T08:09:15;100758.63;;;19.65;59.55
62928;BME280;51070;52.236;-0.892;2023-08-06T08:11:41;100757.71;;;19.73;59.05
62928;BME280;51070;52.236;-0.892;2023-08-06T08:14:07;100757.10;;;19.92;59.40
62928;BME280;51070;52.236;-0.892;2023-08-06T08:16:33;100761.16;;;20.15;58.95
62928;BME280;51070;52.236;-0.892;2023-08-06T08:18:58;100761.77;;;20.29;57.96
62928;BME280;51070;52.236;-0.892;2023-08-06T08:21:24;100763.77;;;20.18;57.53
62928;BME280;51070;52.236;-0.892;2023-08-06T08:23:50;100763.38;;;19.98;57.63
62928;BME280;51070;52.236;-0.892;2023-08-06T08:26:15;100763.80;;;19.82;57.17
62928;BME280;51070;52.236;-0.892;2023-08-06T08:28:41;100764.21;;;19.70;57.83
62928;BME280;51070;52.236;-0.892;2023-08-06T08:31:09;100762.98;;;19.72;58.52
62928;BME280;51070;52.236;-0.892;2023-08-06T08:33:39;100763.27;;;19.85;58.62
62928;BME280;51070;52.236;-0.892;2023-08-06T08:36:05;100763.27;;;19.84;58.04
62928;BME280;51070;52.236;-0.892;2023-08-06T08:38:30;100762.80;;;19.73;57.93
62928;BME280;51070;52.236;-0.892;2023-08-06T08:40:55;100761.24;;;19.68;58.44
62928;BME280;51070;52.236;-0.892;2023-08-06T08:43:21;100764.69;;;19.81;58.60
62928;BME280;51070;52.236;-0.892;2023-08-06T08:45:50;100761.81;;;19.95;57.92
62928;BME280;51070;52.236;-0.892;2023-08-06T08:48:16;100763.70;;;20.32;57.43
62928;BME280;51070;52.236;-0.892;2023-08-06T08:50:45;100767.58;;;20.74;56.72
62928;BME280;51070;52.236;-0.892;2023-08-06T08:53:11;100764.26;;;21.31;55.50
62928;BME280;51070;52.236;-0.892;2023-08-06T08:55:38;100767.02;;;21.65;53.99
62928;BME280;51070;52.236;-0.892;2023-08-06T08:58:04;100770.80;;;21.85;53.60
62928;BME280;51070;52.236;-0.892;2023-08-06T09:00:30;100772.20;;;22.37;52.48
62928;BME280;51070;52.236;-0.892;2023-08-06T09:02:58;100770.25;;;23.39;50.98
62928;BME280;51070;52.236;-0.892;2023-08-06T09:05:26;100772.64;;;24.43;48.87
62928;BME280;51070;52.236;-0.892;2023-08-06T09:07:54;100771.14;;;24.68;46.34
62928;BME280;51070;52.236;-0.892;2023-08-06T09:10:20;100771.33;;;25.54;44.90
62928;BME280;51070;52.236;-0.892;2023-08-06T09:12:50;100770.39;;;26.33;42.56
62928;BME280;51070;52.236;-0.892;2023-08-06T09:15:16;100769.59;;;27.05;41.70
62928;BME280;51070;52.236;-0.892;2023-08-06T09:17:41;100770.42;;;27.57;41.09
62928;BME280;51070;52.236;-0.892;2023-08-06T09:20:12;100771.65;;;27.99;39.90
62928;BME280;51070;52.236;-0.892;2023-08-06T09:22:37;100775.05;;;27.98;39.46
62928;BME280;51070;52.236;-0.892;2023-08-06T09:25:04;100778.23;;;28.35;37.96
62928;BME280;51070;52.236;-0.892;2023-08-06T09:27:35;100774.88;;;27.89;38.20
62928;BME280;51070;52.236;-0.892;2023-08-06T09:30:02;100777.53;;;27.26;38.61
62928;BME280;51070;52.236;-0.892;2023-08-06T09:32:47;100781.14;;;26.52;40.28
62928;BME280;51070;52.236;-0.892;2023-08-06T09:35:17;100784.27;;;25.73;40.38
62928;BME280;51070;52.236;-0.892;2023-08-06T09:37:43;100788.87;;;25.08;40.70
62928;BME280;51070;52.236;-0.892;2023-08-06T09:40:31;100795.94;;;24.44;41.54
62928;BME280;51070;52.236;-0.892;2023-08-06T09:42:58;100794.48;;;23.81;43.60
62928;BME280;51070;52.236;-0.892;2023-08-06T09:45:34;100794.52;;;23.14;44.04
62928;BME280;51070;52.236;-0.892;2023-08-06T09:48:03;100800.05;;;22.46;45.30
62928;BME280;51070;52.236;-0.892;2023-08-06T09:50:30;100806.19;;;21.98;46.38
62928;BME280;51070;52.236;-0.892;2023-08-06T09:52:57;100806.86;;;22.14;46.39
62928;BME280;51070;52.236;-0.892;2023-08-06T09:55:24;100804.73;;;22.51;46.33
62928;BME280;51070;52.236;-0.892;2023-08-06T09:57:52;100809.64;;;22.40;45.49
62928;BME280;51070;52.236;-0.892;2023-08-06T10:00:18;100813.82;;;22.06;46.29
62928;BME280;51070;52.236;-0.892;2023-08-06T10:02:45;100814.55;;;21.90;47.13
62928;BME280;51070;52.236;-0.892;2023-08-06T10:05:11;100813.05;;;22.00;47.40
62928;BME280;51070;52.236;-0.892;2023-08-06T10:07:37;100819.30;;;22.06;47.43
62928;BME280;51070;52.236;-0.892;2023-08-06T10:10:05;100819.14;;;21.90;48.12
62928;BME280;51070;52.236;-0.892;2023-08-06T10:12:39;100820.42;;;21.55;48.69
62928;BME280;51070;52.236;-0.892;2023-08-06T10:15:17;100820.31;;;21.12;49.19
62928;BME280;51070;52.236;-0.892;2023-08-06T10:17:47;100823.45;;;20.72;50.57
62928;BME280;51070;52.236;-0.892;2023-08-06T10:20:16;100822.95;;;20.90;50.48
62928;BME280;51070;52.236;-0.892;2023-08-06T10:22:44;100821.67;;;21.83;49.63
62928;BME280;51070;52.236;-0.892;2023-08-06T10:25:10;100813.67;;;22.41;48.10
62928;BME280;51070;52.236;-0.892;2023-08-06T10:30:28;100816.30;;;23.00;46.66
62928;BME280;51070;52.236;-0.892;2023-08-06T10:32:56;100817.44;;;22.73;47.08
62928;BME280;51070;52.236;-0.892;2023-08-06T10:37:58;100815.10;;;21.74;48.45
62928;BME280;51070;52.236;-0.892;2023-08-06T10:40:25;100819.86;;;21.24;49.45
62928;BME280;51070;52.236;-0.892;2023-08-06T10:42:51;100824.41;;;20.85;50.08
62928;BME280;51070;52.236;-0.892;2023-08-06T10:45:18;100825.29;;;20.63;50.30
62928;BME280;51070;52.236;-0.892;2023-08-06T10:47:44;100823.66;;;20.67;50.36
62928;BME280;51070;52.236;-0.892;2023-08-06T10:50:17;100827.36;;;20.67;50.34
62928;BME280;51070;52.236;-0.892;2023-08-06T10:52:44;100830.04;;;20.63;50.53
62928;BME280;51070;52.236;-0.892;2023-08-06T10:55:10;100829.61;;;20.46;50.58
62928;BME280;51070;52.236;-0.892;2023-08-06T10:57:35;100828.98;;;20.34;51.42
62928;BME280;51070;52.236;-0.892;2023-08-06T11:00:04;100829.71;;;20.27;51.73
62928;BME280;51070;52.236;-0.892;2023-08-06T11:02:33;100830.30;;;20.14;52.18
62928;BME280;51070;52.236;-0.892;2023-08-06T11:05:05;100831.27;;;19.92;52.63
62928;BME280;51070;52.236;-0.892;2023-08-06T11:07:30;100827.43;;;19.90;52.90
62928;BME280;51070;52.236;-0.892;2023-08-06T11:10:02;100826.69;;;20.00;53.14
62928;BME280;51070;52.236;-0.892;2023-08-06T11:12:28;100828.70;;;20.19;52.67
62928;BME280;51070;52.236;-0.892;2023-08-06T11:14:53;100829.50;;;20.34;52.54
62928;BME280;51070;52.236;-0.892;2023-08-06T11:17:18;100828.87;;;20.52;51.82
62928;BME280;51070;52.236;-0.892;2023-08-06T11:19:44;100828.69;;;20.76;51.65
62928;BME280;51070;52.236;-0.892;2023-08-06T11:22:10;100827.95;;;20.80;52.26
62928;BME280;51070;52.236;-0.892;2023-08-06T11:24:37;100834.10;;;20.83;52.22
62928;BME280;51070;52.236;-0.892;2023-08-06T11:27:11;100827.23;;;20.86;52.61
62928;BME280;51070;52.236;-0.892;2023-08-06T11:29:37;100827.66;;;20.94;52.41
62928;BME280;51070;52.236;-0.892;2023-08-06T11:32:04;100829.98;;;20.90;52.83
62928;BME280;51070;52.236;-0.892;2023-08-06T11:34:30;100830.86;;;20.91;52.99
62928;BME280;51070;52.236;-0.892;2023-08-06T11:36:56;100832.55;;;20.99;53.29
62928;BME280;51070;52.236;-0.892;2023-08-06T11:39:22;100838.80;;;21.07;53.06
62928;BME280;51070;52.236;-0.892;2023-08-06T11:41:48;100835.25;;;21.11;52.83
62928;BME280;51070;52.236;-0.892;2023-08-06T11:44:13;100835.05;;;21.14;52.66
62928;BME280;51070;52.236;-0.892;2023-08-06T11:46:52;100833.63;;;21.19;52.15
62928;BME280;51070;52.236;-0.892;2023-08-06T11:49:18;100829.40;;;21.36;52.26
62928;BME280;51070;52.236;-0.892;2023-08-06T11:51:47;100828.15;;;21.86;51.41
62928;BME280;51070;52.236;-0.892;2023-08-06T11:54:13;100827.11;;;22.26;50.16
62928;BME280;51070;52.236;-0.892;2023-08-06T11:56:38;100831.98;;;22.55;48.93
62928;BME280;51070;52.236;-0.892;2023-08-06T11:59:04;100830.63;;;22.63;48.71
62928;BME280;51070;52.236;-0.892;2023-08-06T12:01:30;100829.17;;;22.89;48.31
62928;BME280;51070;52.236;-0.892;2023-08-06T12:03:59;100824.64;;;22.86;47.89
62928;BME280;51070;52.236;-0.892;2023-08-06T12:06:28;100832.14;;;22.80;47.68
62928;BME280;51070;52.236;-0.892;2023-08-06T12:08:53;100826.19;;;22.78;46.76
62928;BME280;51070;52.236;-0.892;2023-08-06T12:11:21;100833.46;;;22.96;46.99
62928;BME280;51070;52.236;-0.892;2023-08-06T12:13:50;100832.77;;;23.05;46.79
62928;BME280;51070;52.236;-0.892;2023-08-06T12:16:16;100837.58;;;22.81;46.60
62928;BME280;51070;52.236;-0.892;2023-08-06T12:18:44;100840.02;;;22.69;46.12
62928;BME280;51070;52.236;-0.892;2023-08-06T12:21:10;100837.55;;;22.71;46.21
62928;BME280;51070;52.236;-0.892;2023-08-06T12:23:35;100836.25;;;22.52;46.22
62928;BME280;51070;52.236;-0.892;2023-08-06T12:26:01;100837.73;;;22.10;46.89
62928;BME280;51070;52.236;-0.892;2023-08-06T12:28:26;100841.19;;;21.69;47.53
62928;BME280;51070;52.236;-0.892;2023-08-06T12:30:52;100849.84;;;21.31;48.10
62928;BME280;51070;52.236;-0.892;2023-08-06T12:33:20;100859.27;;;20.98;48.58
62928;BME280;51070;52.236;-0.892;2023-08-06T12:35:45;100860.20;;;20.67;49.12
62928;BME280;51070;52.236;-0.892;2023-08-06T12:38:11;100863.56;;;20.31;49.70
62928;BME280;51070;52.236;-0.892;2023-08-06T12:40:36;100863.14;;;20.06;50.89
62928;BME280;51070;52.236;-0.892;2023-08-06T12:43:02;100860.92;;;19.90;51.24
62928;BME280;51070;52.236;-0.892;2023-08-06T12:45:27;100861.69;;;19.74;51.39
62928;BME280;51070;52.236;-0.892;2023-08-06T12:47:53;100859.44;;;19.60;51.73